createdAt,value
2017-06-14T00:10:10.371Z,0
2017-06-14T00:20:24.474Z,0
2017-06-14T00:30:39.065Z,0
2017-06-14T00:40:53.257Z,0
2017-06-14T00:51:08.755Z,0
2017-06-14T01:01:23.277Z,0
2017-06-14T01:11:38.056Z,0
2017-06-14T01:21:53.235Z,0
2017-06-14T01:32:07.720Z,0
2017-06-14T01:42:22.482Z,0
2017-06-14T01:52:37.729Z,0
2017-06-14T02:02:52.517Z,0
2017-06-14T02:13:07.516Z,0
2017-06-14T02:23:22.113Z,4
2017-06-14T02:33:36.833Z,8
2017-06-14T02:43:50.588Z,32
2017-06-14T02:54:05.721Z,100
2017-06-14T03:04:20.948Z,240
2017-06-14T03:14:35.366Z,480
2017-06-14T03:24:49.259Z,816
2017-06-14T03:35:04.794Z,1272
2017-06-14T03:45:20.224Z,1660
2017-06-14T03:55:34.371Z,1972
2017-06-14T04:05:49.257Z,2224
2017-06-14T04:16:04.363Z,2640
2017-06-14T04:26:19.528Z,3208
2017-06-14T04:36:34.538Z,3472
2017-06-14T04:46:48.650Z,3708
2017-06-14T04:57:03.394Z,3896
2017-06-14T05:07:18.155Z,4120
2017-06-14T05:17:33.623Z,4328
2017-06-14T05:27:48.885Z,4512
2017-06-14T05:38:02.854Z,4680
2017-06-14T05:48:17.829Z,5068
2017-06-14T05:58:32.961Z,7976
2017-06-14T06:08:47.768Z,29472
2017-06-14T06:19:02.604Z,35008
2017-06-14T06:29:16.441Z,34688
2017-06-14T06:39:30.997Z,41760
2017-06-14T06:49:46.616Z,29664
2017-06-14T07:00:02.177Z,43872
2017-06-14T07:10:17.903Z,59392
2017-06-14T07:20:32.086Z,55232
2017-06-14T07:30:47.242Z,54176
2017-06-14T07:41:03.001Z,69696
2017-06-14T07:51:17.132Z,64640
2017-06-14T08:01:31.804Z,67264
2017-06-14T08:11:47.575Z,65856
2017-06-14T08:22:01.531Z,70944
2017-06-14T08:32:17.252Z,76512
2017-06-14T08:42:31.210Z,75040
2017-06-14T08:52:45.751Z,80928
2017-06-14T09:03:01.262Z,88640
2017-06-14T09:13:17.166Z,86400
2017-06-14T09:23:32.375Z,91328
2017-06-14T09:33:47.281Z,87488
2017-06-14T09:44:01.482Z,89024
2017-06-14T09:54:17.348Z,90592
2017-06-14T10:04:32.117Z,94016
2017-06-14T10:14:46.194Z,97280
2017-06-14T10:25:02.084Z,99616
2017-06-14T10:35:16.968Z,102400
2017-06-14T10:45:32.127Z,108736
2017-06-14T10:55:46.351Z,112608
2017-06-14T11:06:01.878Z,110304
2017-06-14T11:16:15.878Z,107744
2017-06-14T11:26:30.787Z,84800
2017-06-14T11:36:45.100Z,96448
2017-06-14T11:46:59.386Z,88992
2017-06-14T11:57:15.238Z,86176
2017-06-14T12:07:29.269Z,84896
2017-06-14T12:17:44.292Z,90592
2017-06-14T12:27:58.967Z,78784
2017-06-14T12:38:14.867Z,90880
2017-06-14T12:48:29.656Z,99776
2017-06-14T12:58:44.256Z,106144
2017-06-14T13:09:00.339Z,108736
2017-06-14T13:19:15.300Z,105952
2017-06-14T13:29:29.568Z,110240
2017-06-14T13:39:43.840Z,111232
2017-06-14T13:49:57.981Z,109824
2017-06-14T14:00:13.770Z,93280
2017-06-14T14:10:29.243Z,98208
2017-06-14T14:20:45.085Z,91520
2017-06-14T14:30:59.840Z,90240
2017-06-14T14:41:14.856Z,76832
2017-06-14T14:51:29.827Z,70144
2017-06-14T15:01:43.819Z,74720
2017-06-14T15:11:58.182Z,71552
2017-06-14T15:22:13.439Z,74912
2017-06-14T15:32:28.829Z,69824
2017-06-14T15:42:43.130Z,69344
2017-06-14T15:52:57.545Z,61632
2017-06-14T16:03:13.259Z,49568
2017-06-14T16:13:28.022Z,57088
2017-06-14T16:23:43.889Z,52960
2017-06-14T16:33:58.346Z,36480
2017-06-14T16:44:12.752Z,40288
2017-06-14T16:54:28.220Z,43520
2017-06-14T17:04:43.889Z,45920
2017-06-14T17:14:59.579Z,42752
2017-06-14T17:25:14.677Z,33664
2017-06-14T17:35:28.782Z,23168
2017-06-14T17:45:43.480Z,31232
2017-06-14T17:55:57.804Z,10960
2017-06-14T18:06:13.015Z,7096
2017-06-14T18:16:27.938Z,5280
2017-06-14T18:26:42.489Z,4020
2017-06-14T18:36:57.579Z,3844
2017-06-14T18:47:11.552Z,3788
2017-06-14T18:57:26.941Z,3536
2017-06-14T19:07:41.782Z,2972
2017-06-14T19:17:56.527Z,1888
2017-06-14T19:28:12.331Z,1248
2017-06-14T19:38:26.406Z,704
2017-06-14T19:48:41.131Z,360
2017-06-14T19:58:56.236Z,180
2017-06-14T20:09:10.365Z,68
2017-06-14T20:19:24.319Z,20
2017-06-14T20:29:39.713Z,4
2017-06-14T20:39:53.981Z,0
2017-06-14T20:50:07.868Z,0
2017-06-14T21:00:21.691Z,0
2017-06-14T21:10:36.500Z,0
2017-06-14T21:20:51.102Z,0
2017-06-14T21:31:05.910Z,0
2017-06-14T21:41:20.818Z,0
2017-06-14T21:51:35.799Z,0
2017-06-14T22:01:51.107Z,0
2017-06-14T22:12:06.782Z,0
2017-06-14T22:22:21.945Z,0
2017-06-14T22:32:36.534Z,0
2017-06-14T22:42:51.336Z,0
2017-06-14T22:53:05.286Z,0
2017-06-14T23:03:20.276Z,0
2017-06-14T23:13:35.506Z,0
2017-06-14T23:23:50.974Z,0
2017-06-14T23:34:04.855Z,0
2017-06-14T23:44:20.495Z,0
2017-06-14T23:54:34.329Z,0
